sensor_id;sensor_type;location;lat;lon;timestamp;P1;durP1;ratioP1;P2;durP2;ratioP2
46767;SDS011;69007;48.978;18.066;2024-01-16T00:00:49;8.40;;;4.95;;
46767;SDS011;69007;48.978;18.066;2024-01-16T00:03:15;7.47;;;5.28;;
46767;SDS011;69007;48.978;18.066;2024-01-16T00:05:41;7.25;;;4.63;;
46767;SDS011;69007;48.978;18.066;2024-01-16T00:08:06;6.75;;;4.13;;
46767;SDS011;69007;48.978;18.066;2024-01-16T00:10:32;7.00;;;4.65;;
46767;SDS011;69007;48.978;18.066;2024-01-16T00:12:57;7.90;;;5.30;;
46767;SDS011;69007;48.978;18.066;2024-01-16T00:15:22;7.70;;;4.93;;
46767;SDS011;69007;48.978;18.066;2024-01-16T00:17:48;7.10;;;5.05;;
46767;SDS011;69007;48.978;18.066;2024-01-16T00:20:14;7.50;;;4.65;;
46767;SDS011;69007;48.978;18.066;2024-01-16T00:22:40;5.97;;;4.25;;
46767;SDS011;69007;48.978;18.066;2024-01-16T00:25:05;8.93;;;4.63;;
46767;SDS011;69007;48.978;18.066;2024-01-16T00:27:31;6.55;;;4.95;;
46767;SDS011;69007;48.978;18.066;2024-01-16T00:29:57;8.20;;;5.00;;
46767;SDS011;69007;48.978;18.066;2024-01-16T00:32:22;6.30;;;4.90;;
46767;SDS011;69007;48.978;18.066;2024-01-16T00:34:47;9.15;;;4.57;;
46767;SDS011;69007;48.978;18.066;2024-01-16T00:37:13;7.00;;;4.47;;
46767;SDS011;69007;48.978;18.066;2024-01-16T00:39:38;6.07;;;4.35;;
46767;SDS011;69007;48.978;18.066;2024-01-16T00:42:04;7.10;;;4.32;;
46767;SDS011;69007;48.978;18.066;2024-01-16T00:44:30;6.03;;;4.38;;
46767;SDS011;69007;48.978;18.066;2024-01-16T00:46:56;5.85;;;4.43;;
46767;SDS011;69007;48.978;18.066;2024-01-16T00:49:21;6.18;;;4.18;;
46767;SDS011;69007;48.978;18.066;2024-01-16T00:51:46;7.10;;;4.03;;
46767;SDS011;69007;48.978;18.066;2024-01-16T00:54:12;6.88;;;4.60;;
46767;SDS011;69007;48.978;18.066;2024-01-16T00:56:37;5.93;;;4.35;;
46767;SDS011;69007;48.978;18.066;2024-01-16T00:59:02;5.25;;;4.10;;
46767;SDS011;69007;48.978;18.066;2024-01-16T01:01:28;6.75;;;4.45;;
46767;SDS011;69007;48.978;18.066;2024-01-16T01:03:53;8.98;;;4.40;;
46767;SDS011;69007;48.978;18.066;2024-01-16T01:06:20;5.57;;;3.88;;
46767;SDS011;69007;48.978;18.066;2024-01-16T01:08:46;5.15;;;3.97;;
46767;SDS011;69007;48.978;18.066;2024-01-16T01:11:11;6.32;;;4.10;;
46767;SDS011;69007;48.978;18.066;2024-01-16T01:13:37;6.10;;;4.20;;
46767;SDS011;69007;48.978;18.066;2024-01-16T01:16:02;8.52;;;5.30;;
46767;SDS011;69007;48.978;18.066;2024-01-16T01:18:28;7.07;;;4.43;;
46767;SDS011;69007;48.978;18.066;2024-01-16T01:20:53;8.27;;;4.70;;
46767;SDS011;69007;48.978;18.066;2024-01-16T01:23:18;6.38;;;4.85;;
46767;SDS011;69007;48.978;18.066;2024-01-16T01:25:44;5.63;;;4.32;;
46767;SDS011;69007;48.978;18.066;2024-01-16T01:28:09;8.05;;;5.10;;
46767;SDS011;69007;48.978;18.066;2024-01-16T01:30:36;7.80;;;4.90;;
46767;SDS011;69007;48.978;18.066;2024-01-16T01:33:01;8.38;;;5.00;;
46767;SDS011;69007;48.978;18.066;2024-01-16T01:35:26;9.88;;;5.65;;
46767;SDS011;69007;48.978;18.066;2024-01-16T01:37:52;7.95;;;5.63;;
46767;SDS011;69007;48.978;18.066;2024-01-16T01:40:17;11.57;;;5.80;;
46767;SDS011;69007;48.978;18.066;2024-01-16T01:42:43;6.75;;;5.05;;
46767;SDS011;69007;48.978;18.066;2024-01-16T01:45:11;8.85;;;5.15;;
46767;SDS011;69007;48.978;18.066;2024-01-16T01:47:37;7.28;;;4.43;;
46767;SDS011;69007;48.978;18.066;2024-01-16T01:50:04;8.70;;;5.03;;
46767;SDS011;69007;48.978;18.066;2024-01-16T01:52:31;6.10;;;4.43;;
46767;SDS011;69007;48.978;18.066;2024-01-16T01:54:57;7.03;;;4.78;;
46767;SDS011;69007;48.978;18.066;2024-01-16T01:57:23;7.78;;;5.40;;
46767;SDS011;69007;48.978;18.066;2024-01-16T01:59:49;8.73;;;5.90;;
46767;SDS011;69007;48.978;18.066;2024-01-16T02:02:15;9.40;;;6.05;;
46767;SDS011;69007;48.978;18.066;2024-01-16T02:04:41;8.10;;;5.45;;
46767;SDS011;69007;48.978;18.066;2024-01-16T02:07:08;9.20;;;5.50;;
46767;SDS011;69007;48.978;18.066;2024-01-16T02:09:34;8.60;;;5.68;;
46767;SDS011;69007;48.978;18.066;2024-01-16T02:12:00;6.82;;;4.93;;
46767;SDS011;69007;48.978;18.066;2024-01-16T02:14:25;7.90;;;5.10;;
46767;SDS011;69007;48.978;18.066;2024-01-16T02:16:51;6.15;;;4.35;;
46767;SDS011;69007;48.978;18.066;2024-01-16T02:19:16;6.88;;;4.55;;
46767;SDS011;69007;48.978;18.066;2024-01-16T02:21:43;8.00;;;4.80;;
46767;SDS011;69007;48.978;18.066;2024-01-16T02:24:14;8.00;;;4.28;;
46767;SDS011;69007;48.978;18.066;2024-01-16T02:26:40;8.32;;;5.38;;
46767;SDS011;69007;48.978;18.066;2024-01-16T02:29:06;6.05;;;4.45;;
46767;SDS011;69007;48.978;18.066;2024-01-16T02:31:31;5.70;;;3.97;;
46767;SDS011;69007;48.978;18.066;2024-01-16T02:34:00;6.75;;;4.18;;
46767;SDS011;69007;48.978;18.066;2024-01-16T02:36:26;6.22;;;4.63;;
46767;SDS011;69007;48.978;18.066;2024-01-16T02:38:52;6.55;;;4.50;;
46767;SDS011;69007;48.978;18.066;2024-01-16T02:41:18;6.18;;;4.68;;
46767;SDS011;69007;48.978;18.066;2024-01-16T02:43:43;8.35;;;5.00;;
46767;SDS011;69007;48.978;18.066;2024-01-16T02:46:08;6.55;;;4.25;;
46767;SDS011;69007;48.978;18.066;2024-01-16T02:48:37;6.05;;;4.50;;
46767;SDS011;69007;48.978;18.066;2024-01-16T02:51:03;8.95;;;4.90;;
46767;SDS011;69007;48.978;18.066;2024-01-16T02:53:29;6.18;;;5.13;;
46767;SDS011;69007;48.978;18.066;2024-01-16T02:55:55;5.38;;;4.20;;
46767;SDS011;69007;48.978;18.066;2024-01-16T02:58:23;6.50;;;4.03;;
46767;SDS011;69007;48.978;18.066;2024-01-16T03:00:49;6.40;;;3.95;;
46767;SDS011;69007;48.978;18.066;2024-01-16T03:03:14;5.47;;;3.95;;
46767;SDS011;69007;48.978;18.066;2024-01-16T03:05:40;6.00;;;4.35;;
46767;SDS011;69007;48.978;18.066;2024-01-16T03:08:05;6.03;;;4.35;;
46767;SDS011;69007;48.978;18.066;2024-01-16T03:10:32;5.57;;;4.03;;
46767;SDS011;69007;48.978;18.066;2024-01-16T03:12:57;6.32;;;4.20;;
46767;SDS011;69007;48.978;18.066;2024-01-16T03:15:22;6.68;;;4.03;;
46767;SDS011;69007;48.978;18.066;2024-01-16T03:17:48;6.10;;;3.70;;
46767;SDS011;69007;48.978;18.066;2024-01-16T03:20:14;7.35;;;4.63;;
46767;SDS011;69007;48.978;18.066;2024-01-16T03:22:40;6.38;;;3.88;;
46767;SDS011;69007;48.978;18.066;2024-01-16T03:25:05;5.35;;;4.28;;
46767;SDS011;69007;48.978;18.066;2024-01-16T03:27:32;5.47;;;4.03;;
46767;SDS011;69007;48.978;18.066;2024-01-16T03:29:58;6.90;;;4.05;;
46767;SDS011;69007;48.978;18.066;2024-01-16T03:32:23;4.88;;;3.30;;
46767;SDS011;69007;48.978;18.066;2024-01-16T03:34:49;5.32;;;3.88;;
46767;SDS011;69007;48.978;18.066;2024-01-16T03:37:14;5.95;;;4.50;;
46767;SDS011;69007;48.978;18.066;2024-01-16T03:39:39;8.73;;;4.40;;
46767;SDS011;69007;48.978;18.066;2024-01-16T03:42:05;6.55;;;3.70;;
46767;SDS011;69007;48.978;18.066;2024-01-16T03:44:30;4.50;;;3.55;;
46767;SDS011;69007;48.978;18.066;2024-01-16T03:46:55;5.25;;;3.78;;
46767;SDS011;69007;48.978;18.066;2024-01-16T03:49:21;7.05;;;3.80;;
46767;SDS011;69007;48.978;18.066;2024-01-16T03:51:46;6.38;;;4.07;;
46767;SDS011;69007;48.978;18.066;2024-01-16T03:54:12;8.50;;;3.83;;
46767;SDS011;69007;48.978;18.066;2024-01-16T03:56:38;5.25;;;3.63;;
46767;SDS011;69007;48.978;18.066;2024-01-16T03:59:04;6.53;;;3.72;;
46767;SDS011;69007;48.978;18.066;2024-01-16T04:01:30;4.90;;;3.17;;
46767;SDS011;69007;48.978;18.066;2024-01-16T04:03:57;4.82;;;3.28;;
46767;SDS011;69007;48.978;18.066;2024-01-16T04:06:22;5.00;;;3.50;;
46767;SDS011;69007;48.978;18.066;2024-01-16T04:08:47;5.65;;;3.88;;
46767;SDS011;69007;48.978;18.066;2024-01-16T04:11:13;4.95;;;3.45;;
46767;SDS011;69007;48.978;18.066;2024-01-16T04:13:39;5.82;;;3.55;;
46767;SDS011;69007;48.978;18.066;2024-01-16T04:16:05;7.82;;;3.72;;
46767;SDS011;69007;48.978;18.066;2024-01-16T04:18:38;6.18;;;3.90;;
46767;SDS011;69007;48.978;18.066;2024-01-16T04:21:04;7.15;;;3.40;;
46767;SDS011;69007;48.978;18.066;2024-01-16T04:23:30;6.85;;;3.85;;
46767;SDS011;69007;48.978;18.066;2024-01-16T04:25:55;7.60;;;3.83;;
46767;SDS011;69007;48.978;18.066;2024-01-16T04:28:21;5.78;;;3.75;;
46767;SDS011;69007;48.978;18.066;2024-01-16T04:30:46;2.80;;;2.60;;
46767;SDS011;69007;48.978;18.066;2024-01-16T04:33:12;6.47;;;3.67;;
46767;SDS011;69007;48.978;18.066;2024-01-16T04:35:37;6.20;;;3.70;;
46767;SDS011;69007;48.978;18.066;2024-01-16T04:38:02;4.82;;;3.47;;
46767;SDS011;69007;48.978;18.066;2024-01-16T04:40:28;7.85;;;4.07;;
46767;SDS011;69007;48.978;18.066;2024-01-16T04:42:53;4.57;;;3.08;;
46767;SDS011;69007;48.978;18.066;2024-01-16T04:45:18;5.82;;;3.17;;
46767;SDS011;69007;48.978;18.066;2024-01-16T04:47:44;4.70;;;3.47;;
46767;SDS011;69007;48.978;18.066;2024-01-16T04:50:09;5.90;;;3.75;;
46767;SDS011;69007;48.978;18.066;2024-01-16T04:52:35;3.53;;;2.83;;
46767;SDS011;69007;48.978;18.066;2024-01-16T04:55:00;7.28;;;3.20;;
46767;SDS011;69007;48.978;18.066;2024-01-16T04:57:25;6.78;;;2.92;;
46767;SDS011;69007;48.978;18.066;2024-01-16T04:59:51;5.18;;;3.25;;
46767;SDS011;69007;48.978;18.066;2024-01-16T05:02:16;5.43;;;4.28;;
46767;SDS011;69007;48.978;18.066;2024-01-16T05:04:43;4.60;;;3.13;;
46767;SDS011;69007;48.978;18.066;2024-01-16T05:07:08;5.05;;;3.30;;
46767;SDS011;69007;48.978;18.066;2024-01-16T05:09:33;5.20;;;2.97;;
46767;SDS011;69007;48.978;18.066;2024-01-16T05:11:59;9.68;;;2.92;;
46767;SDS011;69007;48.978;18.066;2024-01-16T05:14:25;3.90;;;2.88;;
46767;SDS011;69007;48.978;18.066;2024-01-16T05:16:51;5.00;;;3.25;;
46767;SDS011;69007;48.978;18.066;2024-01-16T05:19:16;5.10;;;2.88;;
46767;SDS011;69007;48.978;18.066;2024-01-16T05:21:42;4.32;;;3.05;;
46767;SDS011;69007;48.978;18.066;2024-01-16T05:24:07;3.92;;;2.90;;
46767;SDS011;69007;48.978;18.066;2024-01-16T05:26:33;5.38;;;3.03;;
46767;SDS011;69007;48.978;18.066;2024-01-16T05:28:59;3.80;;;2.42;;
46767;SDS011;69007;48.978;18.066;2024-01-16T05:31:24;3.17;;;2.70;;
46767;SDS011;69007;48.978;18.066;2024-01-16T05:33:50;3.90;;;2.78;;
46767;SDS011;69007;48.978;18.066;2024-01-16T05:36:15;4.95;;;2.83;;
46767;SDS011;69007;48.978;18.066;2024-01-16T05:38:40;4.53;;;2.63;;
46767;SDS011;69007;48.978;18.066;2024-01-16T05:41:06;4.50;;;3.35;;
46767;SDS011;69007;48.978;18.066;2024-01-16T05:43:31;5.25;;;2.70;;
46767;SDS011;69007;48.978;18.066;2024-01-16T05:45:57;4.43;;;3.28;;
46767;SDS011;69007;48.978;18.066;2024-01-16T05:48:22;4.60;;;2.85;;
46767;SDS011;69007;48.978;18.066;2024-01-16T05:50:47;5.30;;;3.47;;
46767;SDS011;69007;48.978;18.066;2024-01-16T05:53:13;3.60;;;2.58;;
46767;SDS011;69007;48.978;18.066;2024-01-16T05:55:38;3.40;;;2.33;;
46767;SDS011;69007;48.978;18.066;2024-01-16T05:58:04;3.55;;;2.83;;
46767;SDS011;69007;48.978;18.066;2024-01-16T06:00:29;3.13;;;2.83;;
46767;SDS011;69007;48.978;18.066;2024-01-16T06:02:55;6.63;;;2.60;;
46767;SDS011;69007;48.978;18.066;2024-01-16T06:05:20;4.22;;;2.80;;
46767;SDS011;69007;48.978;18.066;2024-01-16T06:07:45;3.80;;;2.85;;
46767;SDS011;69007;48.978;18.066;2024-01-16T06:10:12;4.43;;;3.00;;
46767;SDS011;69007;48.978;18.066;2024-01-16T06:12:41;2.80;;;2.40;;
46767;SDS011;69007;48.978;18.066;2024-01-16T06:15:06;6.25;;;2.72;;
46767;SDS011;69007;48.978;18.066;2024-01-16T06:17:32;5.18;;;2.83;;
46767;SDS011;69007;48.978;18.066;2024-01-16T06:19:57;5.10;;;2.67;;
46767;SDS011;69007;48.978;18.066;2024-01-16T06:22:22;4.70;;;2.25;;
46767;SDS011;69007;48.978;18.066;2024-01-16T06:24:48;5.72;;;4.00;;
46767;SDS011;69007;48.978;18.066;2024-01-16T06:27:13;3.72;;;2.63;;
46767;SDS011;69007;48.978;18.066;2024-01-16T06:29:44;4.80;;;3.05;;
46767;SDS011;69007;48.978;18.066;2024-01-16T06:32:10;4.05;;;2.97;;
46767;SDS011;69007;48.978;18.066;2024-01-16T06:34:36;6.28;;;3.25;;
46767;SDS011;69007;48.978;18.066;2024-01-16T06:37:01;4.05;;;2.75;;
46767;SDS011;69007;48.978;18.066;2024-01-16T06:39:26;3.13;;;2.58;;
46767;SDS011;69007;48.978;18.066;2024-01-16T06:41:52;7.35;;;2.65;;
46767;SDS011;69007;48.978;18.066;2024-01-16T06:44:18;4.22;;;2.42;;
46767;SDS011;69007;48.978;18.066;2024-01-16T06:46:44;5.50;;;3.35;;
46767;SDS011;69007;48.978;18.066;2024-01-16T06:49:09;3.92;;;3.15;;
46767;SDS011;69007;48.978;18.066;2024-01-16T06:51:34;5.63;;;3.17;;
46767;SDS011;69007;48.978;18.066;2024-01-16T06:54:00;3.63;;;2.90;;
46767;SDS011;69007;48.978;18.066;2024-01-16T06:56:25;4.57;;;2.95;;
46767;SDS011;69007;48.978;18.066;2024-01-16T06:58:51;5.45;;;3.28;;
46767;SDS011;69007;48.978;18.066;2024-01-16T07:01:16;5.32;;;3.03;;
46767;SDS011;69007;48.978;18.066;2024-01-16T07:03:41;5.53;;;3.15;;
46767;SDS011;69007;48.978;18.066;2024-01-16T07:06:07;4.35;;;3.13;;
46767;SDS011;69007;48.978;18.066;2024-01-16T07:08:32;5.25;;;3.10;;
46767;SDS011;69007;48.978;18.066;2024-01-16T07:10:58;3.47;;;2.95;;
46767;SDS011;69007;48.978;18.066;2024-01-16T07:13:23;4.25;;;2.85;;
46767;SDS011;69007;48.978;18.066;2024-01-16T07:15:48;6.32;;;3.28;;
46767;SDS011;69007;48.978;18.066;2024-01-16T07:18:14;5.20;;;3.15;;
46767;SDS011;69007;48.978;18.066;2024-01-16T07:20:39;6.35;;;3.22;;
46767;SDS011;69007;48.978;18.066;2024-01-16T07:23:04;6.75;;;3.78;;
46767;SDS011;69007;48.978;18.066;2024-01-16T07:25:30;4.18;;;2.90;;
46767;SDS011;69007;48.978;18.066;2024-01-16T07:27:55;6.32;;;3.10;;
46767;SDS011;69007;48.978;18.066;2024-01-16T07:30:21;4.97;;;2.65;;
46767;SDS011;69007;48.978;18.066;2024-01-16T07:32:46;4.35;;;2.70;;
46767;SDS011;69007;48.978;18.066;2024-01-16T07:35:12;6.03;;;3.60;;
46767;SDS011;69007;48.978;18.066;2024-01-16T07:37:38;3.90;;;3.28;;
46767;SDS011;69007;48.978;18.066;2024-01-16T07:40:03;4.25;;;2.88;;
46767;SDS011;69007;48.978;18.066;2024-01-16T07:42:31;4.30;;;3.10;;
46767;SDS011;69007;48.978;18.066;2024-01-16T07:44:59;5.55;;;3.05;;
46767;SDS011;69007;48.978;18.066;2024-01-16T07:47:29;6.15;;;2.75;;
46767;SDS011;69007;48.978;18.066;2024-01-16T07:49:56;5.60;;;3.33;;
46767;SDS011;69007;48.978;18.066;2024-01-16T07:52:21;4.72;;;3.08;;
46767;SDS011;69007;48.978;18.066;2024-01-16T07:54:46;4.80;;;3.22;;
46767;SDS011;69007;48.978;18.066;2024-01-16T07:57:12;3.47;;;2.63;;
46767;SDS011;69007;48.978;18.066;2024-01-16T07:59:37;6.13;;;2.92;;
46767;SDS011;69007;48.978;18.066;2024-01-16T08:02:03;3.70;;;2.70;;
46767;SDS011;69007;48.978;18.066;2024-01-16T08:04:30;5.05;;;3.40;;
46767;SDS011;69007;48.978;18.066;2024-01-16T08:06:55;4.45;;;3.10;;
46767;SDS011;69007;48.978;18.066;2024-01-16T08:09:21;6.65;;;3.30;;
46767;SDS011;69007;48.978;18.066;2024-01-16T08:11:46;6.35;;;2.83;;
46767;SDS011;69007;48.978;18.066;2024-01-16T08:14:11;4.45;;;3.20;;
46767;SDS011;69007;48.978;18.066;2024-01-16T08:16:37;6.47;;;2.92;;
46767;SDS011;69007;48.978;18.066;2024-01-16T08:19:02;6.88;;;2.58;;
46767;SDS011;69007;48.978;18.066;2024-01-16T08:21:28;6.07;;;3.25;;
46767;SDS011;69007;48.978;18.066;2024-01-16T08:23:53;6.43;;;3.28;;
46767;SDS011;69007;48.978;18.066;2024-01-16T08:26:19;4.28;;;3.28;;
46767;SDS011;69007;48.978;18.066;2024-01-16T08:28:44;5.05;;;2.72;;
46767;SDS011;69007;48.978;18.066;2024-01-16T08:31:10;4.85;;;3.08;;
46767;SDS011;69007;48.978;18.066;2024-01-16T08:33:35;7.60;;;3.13;;
46767;SDS011;69007;48.978;18.066;2024-01-16T08:36:00;5.05;;;3.10;;
46767;SDS011;69007;48.978;18.066;2024-01-16T08:38:26;4.40;;;2.83;;
46767;SDS011;69007;48.978;18.066;2024-01-16T08:40:51;3.83;;;3.00;;
46767;SDS011;69007;48.978;18.066;2024-01-16T08:43:17;5.35;;;2.95;;
46767;SDS011;69007;48.978;18.066;2024-01-16T08:45:42;4.47;;;2.95;;
46767;SDS011;69007;48.978;18.066;2024-01-16T08:48:08;4.40;;;3.40;;
46767;SDS011;69007;48.978;18.066;2024-01-16T08:50:34;4.45;;;2.72;;
46767;SDS011;69007;48.978;18.066;2024-01-16T08:53:02;3.90;;;2.75;;
46767;SDS011;69007;48.978;18.066;2024-01-16T08:55:28;3.55;;;2.63;;
46767;SDS011;69007;48.978;18.066;2024-01-16T08:57:53;3.70;;;2.35;;
46767;SDS011;69007;48.978;18.066;2024-01-16T09:00:19;3.33;;;3.03;;
46767;SDS011;69007;48.978;18.066;2024-01-16T09:02:44;2.42;;;2.15;;
46767;SDS011;69007;48.978;18.066;2024-01-16T09:05:09;2.72;;;2.45;;
46767;SDS011;69007;48.978;18.066;2024-01-16T09:07:35;3.60;;;2.42;;
46767;SDS011;69007;48.978;18.066;2024-01-16T09:10:00;3.45;;;2.50;;
46767;SDS011;69007;48.978;18.066;2024-01-16T09:12:25;3.10;;;2.60;;
46767;SDS011;69007;48.978;18.066;2024-01-16T09:14:51;2.83;;;2.47;;
46767;SDS011;69007;48.978;18.066;2024-01-16T09:17:16;4.18;;;2.45;;
46767;SDS011;69007;48.978;18.066;2024-01-16T09:19:42;6.93;;;2.30;;
46767;SDS011;69007;48.978;18.066;2024-01-16T09:22:10;3.55;;;2.40;;
46767;SDS011;69007;48.978;18.066;2024-01-16T09:24:35;3.88;;;2.60;;
46767;SDS011;69007;48.978;18.066;2024-01-16T09:27:01;5.10;;;2.28;;
46767;SDS011;69007;48.978;18.066;2024-01-16T09:29:31;3.58;;;2.35;;
46767;SDS011;69007;48.978;18.066;2024-01-16T09:31:56;4.93;;;2.28;;
46767;SDS011;69007;48.978;18.066;2024-01-16T09:34:22;2.50;;;2.05;;
46767;SDS011;69007;48.978;18.066;2024-01-16T09:36:47;3.45;;;2.17;;
46767;SDS011;69007;48.978;18.066;2024-01-16T09:39:12;2.67;;;2.42;;
46767;SDS011;69007;48.978;18.066;2024-01-16T09:41:39;2.97;;;2.22;;
46767;SDS011;69007;48.978;18.066;2024-01-16T09:44:04;2.55;;;2.20;;
46767;SDS011;69007;48.978;18.066;2024-01-16T09:46:31;2.83;;;2.30;;
46767;SDS011;69007;48.978;18.066;2024-01-16T09:48:59;3.85;;;2.70;;
46767;SDS011;69007;48.978;18.066;2024-01-16T09:51:25;4.75;;;2.60;;
46767;SDS011;69007;48.978;18.066;2024-01-16T09:53:50;3.08;;;2.45;;
46767;SDS011;69007;48.978;18.066;2024-01-16T09:56:17;4.15;;;2.67;;
46767;SDS011;69007;48.978;18.066;2024-01-16T09:58:48;4.50;;;2.53;;
46767;SDS011;69007;48.978;18.066;2024-01-16T10:01:14;2.95;;;2.65;;
46767;SDS011;69007;48.978;18.066;2024-01-16T10:03:41;4.28;;;2.70;;
46767;SDS011;69007;48.978;18.066;2024-01-16T10:06:09;5.95;;;2.83;;
46767;SDS011;69007;48.978;18.066;2024-01-16T10:08:36;3.60;;;2.70;;
46767;SDS011;69007;48.978;18.066;2024-01-16T10:11:02;6.32;;;2.65;;
46767;SDS011;69007;48.978;18.066;2024-01-16T10:13:27;4.15;;;2.90;;
46767;SDS011;69007;48.978;18.066;2024-01-16T10:15:54;5.07;;;2.75;;
46767;SDS011;69007;48.978;18.066;2024-01-16T10:18:24;4.32;;;2.40;;
46767;SDS011;69007;48.978;18.066;2024-01-16T10:20:51;3.20;;;2.90;;
46767;SDS011;69007;48.978;18.066;2024-01-16T10:23:23;3.80;;;2.78;;
46767;SDS011;69007;48.978;18.066;2024-01-16T10:26:11;5.72;;;2.78;;
46767;SDS011;69007;48.978;18.066;2024-01-16T10:28:40;3.75;;;2.80;;
46767;SDS011;69007;48.978;18.066;2024-01-16T10:31:07;3.42;;;2.50;;
46767;SDS011;69007;48.978;18.066;2024-01-16T10:33:34;3.80;;;3.08;;
46767;SDS011;69007;48.978;18.066;2024-01-16T10:36:15;4.15;;;2.58;;
46767;SDS011;69007;48.978;18.066;2024-01-16T10:38:46;3.17;;;2.42;;
46767;SDS011;69007;48.978;18.066;2024-01-16T10:41:12;3.58;;;2.80;;
46767;SDS011;69007;48.978;18.066;2024-01-16T10:43:46;3.58;;;2.70;;
46767;SDS011;69007;48.978;18.066;2024-01-16T10:46:13;6.07;;;3.08;;
46767;SDS011;69007;48.978;18.066;2024-01-16T10:48:40;2.90;;;2.47;;
46767;SDS011;69007;48.978;18.066;2024-01-16T10:51:07;3.67;;;2.97;;
46767;SDS011;69007;48.978;18.066;2024-01-16T10:53:36;5.88;;;3.40;;
46767;SDS011;69007;48.978;18.066;2024-01-16T10:56:06;4.97;;;2.90;;
46767;SDS011;69007;48.978;18.066;2024-01-16T10:58:36;4.00;;;2.65;;
46767;SDS011;69007;48.978;18.066;2024-01-16T11:01:07;3.33;;;2.58;;
46767;SDS011;69007;48.978;18.066;2024-01-16T11:06:15;3.40;;;2.55;;
46767;SDS011;69007;48.978;18.066;2024-01-16T11:08:42;4.18;;;2.80;;
46767;SDS011;69007;48.978;18.066;2024-01-16T11:11:10;4.68;;;3.00;;
46767;SDS011;69007;48.978;18.066;2024-01-16T11:13:38;5.35;;;2.35;;
46767;SDS011;69007;48.978;18.066;2024-01-16T11:16:05;3.00;;;2.63;;
46767;SDS011;69007;48.978;18.066;2024-01-16T11:18:32;5.15;;;2.70;;
46767;SDS011;69007;48.978;18.066;2024-01-16T11:20:59;2.97;;;2.30;;
46767;SDS011;69007;48.978;18.066;2024-01-16T11:23:26;3.45;;;2.63;;
46767;SDS011;69007;48.978;18.066;2024-01-16T11:25:51;4.38;;;2.40;;
46767;SDS011;69007;48.978;18.066;2024-01-16T11:28:16;4.38;;;2.67;;
46767;SDS011;69007;48.978;18.066;2024-01-16T11:30:44;3.35;;;2.28;;
46767;SDS011;69007;48.978;18.066;2024-01-16T11:35:56;2.75;;;2.50;;
46767;SDS011;69007;48.978;18.066;2024-01-16T11:38:22;4.45;;;2.75;;
46767;SDS011;69007;48.978;18.066;2024-01-16T11:40:51;4.88;;;3.10;;
46767;SDS011;69007;48.978;18.066;2024-01-16T11:45:58;6.47;;;3.15;;
46767;SDS011;69007;48.978;18.066;2024-01-16T11:48:24;5.78;;;2.30;;
46767;SDS011;69007;48.978;18.066;2024-01-16T11:50:50;5.07;;;2.67;;
46767;SDS011;69007;48.978;18.066;2024-01-16T11:53:30;2.22;;;1.90;;
46767;SDS011;69007;48.978;18.066;2024-01-16T12:01:32;2.28;;;2.08;;
46767;SDS011;69007;48.978;18.066;2024-01-16T12:04:06;2.53;;;1.83;;
46767;SDS011;69007;48.978;18.066;2024-01-16T12:06:35;3.22;;;2.08;;
46767;SDS011;69007;48.978;18.066;2024-01-16T12:09:10;5.10;;;2.50;;
46767;SDS011;69007;48.978;18.066;2024-01-16T12:11:40;3.85;;;1.90;;
46767;SDS011;69007;48.978;18.066;2024-01-16T12:14:08;3.72;;;2.35;;
46767;SDS011;69007;48.978;18.066;2024-01-16T12:16:34;2.83;;;2.08;;
46767;SDS011;69007;48.978;18.066;2024-01-16T12:19:08;3.45;;;2.60;;
46767;SDS011;69007;48.978;18.066;2024-01-16T12:21:41;2.47;;;2.00;;
46767;SDS011;69007;48.978;18.066;2024-01-16T12:24:08;2.50;;;1.75;;
46767;SDS011;69007;48.978;18.066;2024-01-16T12:26:35;2.58;;;2.00;;
46767;SDS011;69007;48.978;18.066;2024-01-16T12:29:00;4.63;;;2.33;;
46767;SDS011;69007;48.978;18.066;2024-01-16T12:31:27;2.10;;;1.80;;
46767;SDS011;69007;48.978;18.066;2024-01-16T12:33:52;4.00;;;1.85;;
46767;SDS011;69007;48.978;18.066;2024-01-16T12:36:18;6.75;;;2.10;;
46767;SDS011;69007;48.978;18.066;2024-01-16T12:38:43;5.32;;;1.90;;
46767;SDS011;69007;48.978;18.066;2024-01-16T12:41:09;3.72;;;1.95;;
46767;SDS011;69007;48.978;18.066;2024-01-16T12:43:36;2.80;;;1.98;;
46767;SDS011;69007;48.978;18.066;2024-01-16T12:46:03;6.03;;;2.47;;
46767;SDS011;69007;48.978;18.066;2024-01-16T12:48:29;5.78;;;2.40;;
46767;SDS011;69007;48.978;18.066;2024-01-16T12:51:00;5.13;;;2.00;;
46767;SDS011;69007;48.978;18.066;2024-01-16T12:53:32;3.80;;;2.45;;
46767;SDS011;69007;48.978;18.066;2024-01-16T12:55:59;4.20;;;2.20;;
46767;SDS011;69007;48.978;18.066;2024-01-16T12:58:28;4.95;;;2.20;;
46767;SDS011;69007;48.978;18.066;2024-01-16T13:01:13;4.28;;;2.25;;
46767;SDS011;69007;48.978;18.066;2024-01-16T13:03:52;3.83;;;2.42;;
46767;SDS011;69007;48.978;18.066;2024-01-16T13:06:18;5.85;;;3.03;;
46767;SDS011;69007;48.978;18.066;2024-01-16T13:08:48;5.55;;;3.80;;
46767;SDS011;69007;48.978;18.066;2024-01-16T13:11:30;3.28;;;2.60;;
46767;SDS011;69007;48.978;18.066;2024-01-16T13:14:01;4.57;;;2.67;;
46767;SDS011;69007;48.978;18.066;2024-01-16T13:16:29;5.30;;;2.50;;
46767;SDS011;69007;48.978;18.066;2024-01-16T13:19:01;8.75;;;2.30;;
46767;SDS011;69007;48.978;18.066;2024-01-16T13:21:27;4.88;;;2.05;;
46767;SDS011;69007;48.978;18.066;2024-01-16T13:23:52;3.05;;;1.88;;
46767;SDS011;69007;48.978;18.066;2024-01-16T13:26:18;1.85;;;1.45;;
46767;SDS011;69007;48.978;18.066;2024-01-16T13:28:43;3.08;;;1.70;;
46767;SDS011;69007;48.978;18.066;2024-01-16T13:31:08;1.90;;;1.40;;
46767;SDS011;69007;48.978;18.066;2024-01-16T13:33:34;5.53;;;1.85;;
46767;SDS011;69007;48.978;18.066;2024-01-16T13:35:59;5.18;;;2.10;;
46767;SDS011;69007;48.978;18.066;2024-01-16T13:38:24;5.65;;;2.15;;
46767;SDS011;69007;48.978;18.066;2024-01-16T13:40:50;1.33;;;1.23;;
46767;SDS011;69007;48.978;18.066;2024-01-16T13:43:15;3.03;;;1.50;;
46767;SDS011;69007;48.978;18.066;2024-01-16T13:45:41;2.63;;;1.80;;
46767;SDS011;69007;48.978;18.066;2024-01-16T13:48:09;3.78;;;1.58;;
46767;SDS011;69007;48.978;18.066;2024-01-16T13:50:34;1.65;;;1.40;;
46767;SDS011;69007;48.978;18.066;2024-01-16T13:53:00;3.72;;;1.70;;
46767;SDS011;69007;48.978;18.066;2024-01-16T13:55:26;1.55;;;1.45;;
46767;SDS011;69007;48.978;18.066;2024-01-16T13:57:52;3.63;;;1.60;;
46767;SDS011;69007;48.978;18.066;2024-01-16T14:00:18;4.53;;;1.33;;
46767;SDS011;69007;48.978;18.066;2024-01-16T14:02:44;2.22;;;1.52;;
46767;SDS011;69007;48.978;18.066;2024-01-16T14:05:11;1.48;;;1.27;;
46767;SDS011;69007;48.978;18.066;2024-01-16T14:07:40;2.05;;;1.50;;
46767;SDS011;69007;48.978;18.066;2024-01-16T14:10:07;2.78;;;1.80;;
46767;SDS011;69007;48.978;18.066;2024-01-16T14:12:37;3.45;;;1.55;;
46767;SDS011;69007;48.978;18.066;2024-01-16T14:15:08;3.70;;;1.80;;
46767;SDS011;69007;48.978;18.066;2024-01-16T14:17:49;3.53;;;1.90;;
46767;SDS011;69007;48.978;18.066;2024-01-16T14:20:22;2.22;;;1.88;;
46767;SDS011;69007;48.978;18.066;2024-01-16T14:22:52;4.43;;;2.20;;
46767;SDS011;69007;48.978;18.066;2024-01-16T14:25:18;9.18;;;2.33;;
46767;SDS011;69007;48.978;18.066;2024-01-16T14:28:00;3.70;;;1.77;;
46767;SDS011;69007;48.978;18.066;2024-01-16T14:30:33;7.70;;;2.10;;
46767;SDS011;69007;48.978;18.066;2024-01-16T14:33:00;3.00;;;1.63;;
46767;SDS011;69007;48.978;18.066;2024-01-16T14:35:26;5.40;;;2.13;;
46767;SDS011;69007;48.978;18.066;2024-01-16T14:37:52;3.63;;;2.35;;
46767;SDS011;69007;48.978;18.066;2024-01-16T14:40:18;3.78;;;2.03;;
46767;SDS011;69007;48.978;18.066;2024-01-16T14:42:52;5.47;;;1.95;;